• Join FlightAware (Why Join?)
  • Login
  • US Flag 
02:10AM EDT


 

Airport Tracker/Info


-or-


 

Live Flight TrackerFlight Track Log ✈ CTL17 ✈ 30-Apr-2013 ✈ KPTK - KMBS

Flight Track Log - Related Links

Times and Time Zones

All times are in EDT time to prevent confusion due to time zone crossing. See the CTL17 flight status page for this flight to view local times or setup timezone preferences in your user account.

Time Position Orientation Groundspeed Altitude Reporting Facility
EDT Latitude Longitude Course Direction KTS MPH feet Rate Location/Type
03:52PM 42.6603 -83.4433 278° West 115 132 1,500  Level Cleveland Center
03:52PM 42.6619 -83.4603 278° West 120 138 1,900 1,020 Climbing Cleveland Center
03:53PM 42.6606 -83.5083 268° West 152 175 3,000 1,080 Climbing Cleveland Center
03:55PM 42.6922 -83.4613 48° Northeast  Level FlightAware Approximate
04:02PM 42.9322 -83.4021 321° Northwest  Level FlightAware Approximate
04:03PM 42.9596 -83.4322 321° Northwest  Level FlightAware Approximate
04:04PM 42.9870 -83.4624 321° Northwest  Level FlightAware Approximate
04:05PM 43.0144 -83.4926 321° Northwest  Level FlightAware Approximate
04:06PM 43.0418 -83.5228 321° Northwest  Level FlightAware Approximate
04:07PM 43.0691 -83.5530 321° Northwest  Level FlightAware Approximate
04:08PM 43.0965 -83.5833 321° Northwest  Level FlightAware Approximate
04:09PM 43.1239 -83.6136 321° Northwest  Level FlightAware Approximate
04:10PM 43.1512 -83.6439 321° Northwest  Level FlightAware Approximate
04:11PM 43.1786 -83.6743 321° Northwest  Level FlightAware Approximate
04:12PM 43.2059 -83.7047 321° Northwest  Level FlightAware Approximate
04:13PM 43.2326 -83.7361 318° Northwest  Level FlightAware Approximate
04:14PM 43.2589 -83.7682 318° Northwest  Level FlightAware Approximate
04:15PM 43.2852 -83.8003 318° Northwest  Level FlightAware Approximate
04:16PM 43.3115 -83.8324 318° Northwest  Level FlightAware Approximate
04:17PM 43.3377 -83.8645 318° Northwest  Level FlightAware Approximate
04:18PM 43.3640 -83.8967 318° Northwest  Level FlightAware Approximate
04:19PM 43.3923 -83.9255 324° Northwest  Level FlightAware Approximate
04:20PM 43.4207 -83.9540 324° Northwest  Level FlightAware Approximate
04:21PM 43.4492 -83.9825 324° Northwest  Level FlightAware Approximate
04:22PM 43.4777 -84.0109 324° Northwest  Level FlightAware Approximate
04:23PM 43.5043 -84.0419 305° West  Level FlightAware Approximate